sensor_id;sensor_type;location;lat;lon;timestamp;P1;durP1;ratioP1;P2;durP2;ratioP2
5295;SDS011;2670;42.720;23.336;2022-09-03T00:00:50;11.20;;;6.70;;
5295;SDS011;2670;42.720;23.336;2022-09-03T00:03:22;10.80;;;6.50;;
5295;SDS011;2670;42.720;23.336;2022-09-03T00:05:55;7.03;;;5.97;;
5295;SDS011;2670;42.720;23.336;2022-09-03T00:08:32;9.50;;;6.60;;
5295;SDS011;2670;42.720;23.336;2022-09-03T00:11:04;7.60;;;6.00;;
5295;SDS011;2670;42.720;23.336;2022-09-03T00:13:39;9.13;;;6.60;;
5295;SDS011;2670;42.720;23.336;2022-09-03T00:16:12;7.10;;;5.47;;
5295;SDS011;2670;42.720;23.336;2022-09-03T00:18:46;7.40;;;5.87;;
5295;SDS011;2670;42.720;23.336;2022-09-03T00:21:28;7.90;;;6.23;;
5295;SDS011;2670;42.720;23.336;2022-09-03T00:24:02;9.10;;;6.00;;
5295;SDS011;2670;42.720;23.336;2022-09-03T00:26:33;9.83;;;5.47;;
5295;SDS011;2670;42.720;23.336;2022-09-03T00:29:04;5.90;;;5.10;;
5295;SDS011;2670;42.720;23.336;2022-09-03T00:31:37;7.90;;;5.30;;
5295;SDS011;2670;42.720;23.336;2022-09-03T00:34:09;9.67;;;6.00;;
5295;SDS011;2670;42.720;23.336;2022-09-03T00:36:41;7.57;;;5.30;;
5295;SDS011;2670;42.720;23.336;2022-09-03T00:39:10;8.70;;;6.70;;
5295;SDS011;2670;42.720;23.336;2022-09-03T00:41:40;7.57;;;5.20;;
5295;SDS011;2670;42.720;23.336;2022-09-03T00:44:33;8.80;;;6.10;;
5295;SDS011;2670;42.720;23.336;2022-09-03T00:47:11;7.30;;;5.67;;
5295;SDS011;2670;42.720;23.336;2022-09-03T00:49:45;6.40;;;5.20;;
5295;SDS011;2670;42.720;23.336;2022-09-03T00:52:22;16.03;;;6.70;;
5295;SDS011;2670;42.720;23.336;2022-09-03T00:55:02;8.37;;;5.80;;
5295;SDS011;2670;42.720;23.336;2022-09-03T00:57:39;8.87;;;5.73;;
5295;SDS011;2670;42.720;23.336;2022-09-03T01:00:17;8.80;;;5.60;;
5295;SDS011;2670;42.720;23.336;2022-09-03T01:02:49;8.13;;;5.47;;
5295;SDS011;2670;42.720;23.336;2022-09-03T01:05:26;8.50;;;5.00;;
5295;SDS011;2670;42.720;23.336;2022-09-03T01:08:04;7.93;;;5.47;;
5295;SDS011;2670;42.720;23.336;2022-09-03T01:10:42;7.17;;;4.80;;
5295;SDS011;2670;42.720;23.336;2022-09-03T01:13:19;6.63;;;5.30;;
5295;SDS011;2670;42.720;23.336;2022-09-03T01:15:50;7.43;;;5.83;;
5295;SDS011;2670;42.720;23.336;2022-09-03T01:18:27;7.27;;;5.10;;
5295;SDS011;2670;42.720;23.336;2022-09-03T01:21:08;11.83;;;6.23;;
5295;SDS011;2670;42.720;23.336;2022-09-03T01:23:59;5.43;;;4.33;;
5295;SDS011;2670;42.720;23.336;2022-09-03T01:29:42;10.03;;;6.30;;
5295;SDS011;2670;42.720;23.336;2022-09-03T01:32:24;10.27;;;6.00;;
5295;SDS011;2670;42.720;23.336;2022-09-03T01:35:07;8.80;;;5.63;;
5295;SDS011;2670;42.720;23.336;2022-09-03T01:37:45;8.93;;;5.57;;
5295;SDS011;2670;42.720;23.336;2022-09-03T01:40:22;8.60;;;5.87;;
5295;SDS011;2670;42.720;23.336;2022-09-03T01:42:59;8.63;;;5.70;;
5295;SDS011;2670;42.720;23.336;2022-09-03T01:45:41;9.70;;;6.17;;
5295;SDS011;2670;42.720;23.336;2022-09-03T01:51:09;8.73;;;5.63;;
5295;SDS011;2670;42.720;23.336;2022-09-03T01:54:07;10.67;;;5.80;;
5295;SDS011;2670;42.720;23.336;2022-09-03T01:56:52;7.57;;;5.47;;
5295;SDS011;2670;42.720;23.336;2022-09-03T01:59:35;9.40;;;6.60;;
5295;SDS011;2670;42.720;23.336;2022-09-03T02:02:10;9.20;;;6.30;;
5295;SDS011;2670;42.720;23.336;2022-09-03T02:04:53;10.53;;;6.00;;
5295;SDS011;2670;42.720;23.336;2022-09-03T02:07:24;11.80;;;7.50;;
5295;SDS011;2670;42.720;23.336;2022-09-03T02:09:57;7.40;;;5.53;;
5295;SDS011;2670;42.720;23.336;2022-09-03T02:12:25;9.63;;;6.07;;
5295;SDS011;2670;42.720;23.336;2022-09-03T02:14:57;12.70;;;7.23;;
5295;SDS011;2670;42.720;23.336;2022-09-03T02:17:25;10.30;;;6.53;;
5295;SDS011;2670;42.720;23.336;2022-09-03T02:19:52;15.03;;;6.47;;
5295;SDS011;2670;42.720;23.336;2022-09-03T02:22:20;9.93;;;6.37;;
5295;SDS011;2670;42.720;23.336;2022-09-03T02:24:47;13.50;;;7.17;;
5295;SDS011;2670;42.720;23.336;2022-09-03T02:27:14;10.20;;;5.90;;
5295;SDS011;2670;42.720;23.336;2022-09-03T02:29:41;8.00;;;5.50;;
5295;SDS011;2670;42.720;23.336;2022-09-03T02:32:08;11.43;;;6.63;;
5295;SDS011;2670;42.720;23.336;2022-09-03T02:34:36;13.20;;;6.73;;
5295;SDS011;2670;42.720;23.336;2022-09-03T02:37:10;12.40;;;6.70;;
5295;SDS011;2670;42.720;23.336;2022-09-03T02:39:38;13.20;;;7.07;;
5295;SDS011;2670;42.720;23.336;2022-09-03T02:42:05;10.67;;;6.47;;
5295;SDS011;2670;42.720;23.336;2022-09-03T02:44:33;9.50;;;6.67;;
5295;SDS011;2670;42.720;23.336;2022-09-03T02:47:03;11.70;;;6.83;;
5295;SDS011;2670;42.720;23.336;2022-09-03T02:49:31;11.23;;;7.13;;
5295;SDS011;2670;42.720;23.336;2022-09-03T02:52:01;10.67;;;7.30;;
5295;SDS011;2670;42.720;23.336;2022-09-03T02:54:30;10.20;;;6.87;;
5295;SDS011;2670;42.720;23.336;2022-09-03T02:56:59;9.40;;;6.60;;
5295;SDS011;2670;42.720;23.336;2022-09-03T02:59:26;12.03;;;7.20;;
5295;SDS011;2670;42.720;23.336;2022-09-03T03:01:53;10.50;;;7.30;;
5295;SDS011;2670;42.720;23.336;2022-09-03T03:04:20;10.63;;;6.00;;
5295;SDS011;2670;42.720;23.336;2022-09-03T03:06:47;10.60;;;7.30;;
5295;SDS011;2670;42.720;23.336;2022-09-03T03:09:16;13.93;;;7.13;;
5295;SDS011;2670;42.720;23.336;2022-09-03T03:11:43;11.53;;;7.30;;
5295;SDS011;2670;42.720;23.336;2022-09-03T03:14:10;11.67;;;6.70;;
5295;SDS011;2670;42.720;23.336;2022-09-03T03:16:38;12.70;;;7.07;;
5295;SDS011;2670;42.720;23.336;2022-09-03T03:19:04;11.57;;;7.60;;
5295;SDS011;2670;42.720;23.336;2022-09-03T03:21:31;12.40;;;7.40;;
5295;SDS011;2670;42.720;23.336;2022-09-03T03:23:59;10.43;;;6.70;;
5295;SDS011;2670;42.720;23.336;2022-09-03T03:26:28;12.47;;;8.33;;
5295;SDS011;2670;42.720;23.336;2022-09-03T03:28:55;12.70;;;7.57;;
5295;SDS011;2670;42.720;23.336;2022-09-03T03:31:23;15.37;;;7.93;;
5295;SDS011;2670;42.720;23.336;2022-09-03T03:33:51;12.83;;;7.63;;
5295;SDS011;2670;42.720;23.336;2022-09-03T03:36:18;10.10;;;6.97;;
5295;SDS011;2670;42.720;23.336;2022-09-03T03:38:46;17.17;;;7.50;;
5295;SDS011;2670;42.720;23.336;2022-09-03T03:41:13;11.87;;;7.40;;
5295;SDS011;2670;42.720;23.336;2022-09-03T03:43:43;16.67;;;8.90;;
5295;SDS011;2670;42.720;23.336;2022-09-03T03:46:10;11.47;;;7.80;;
5295;SDS011;2670;42.720;23.336;2022-09-03T03:48:38;10.73;;;7.07;;
5295;SDS011;2670;42.720;23.336;2022-09-03T03:51:06;13.30;;;7.57;;
5295;SDS011;2670;42.720;23.336;2022-09-03T03:53:34;9.67;;;6.53;;
5295;SDS011;2670;42.720;23.336;2022-09-03T03:56:03;11.53;;;7.10;;
5295;SDS011;2670;42.720;23.336;2022-09-03T03:58:32;11.43;;;6.80;;
5295;SDS011;2670;42.720;23.336;2022-09-03T04:01:04;9.63;;;6.77;;
5295;SDS011;2670;42.720;23.336;2022-09-03T04:03:31;12.50;;;7.90;;
5295;SDS011;2670;42.720;23.336;2022-09-03T04:05:58;9.60;;;7.13;;
5295;SDS011;2670;42.720;23.336;2022-09-03T04:08:27;12.70;;;7.73;;
5295;SDS011;2670;42.720;23.336;2022-09-03T04:10:58;11.87;;;6.93;;
5295;SDS011;2670;42.720;23.336;2022-09-03T04:13:27;10.90;;;7.17;;
5295;SDS011;2670;42.720;23.336;2022-09-03T04:15:58;12.50;;;7.43;;
5295;SDS011;2670;42.720;23.336;2022-09-03T04:18:27;10.93;;;6.27;;
5295;SDS011;2670;42.720;23.336;2022-09-03T04:20:57;13.70;;;6.97;;
5295;SDS011;2670;42.720;23.336;2022-09-03T04:23:24;10.47;;;7.23;;
5295;SDS011;2670;42.720;23.336;2022-09-03T04:25:53;12.80;;;7.60;;
5295;SDS011;2670;42.720;23.336;2022-09-03T04:28:19;10.97;;;7.27;;
5295;SDS011;2670;42.720;23.336;2022-09-03T04:30:46;14.67;;;7.90;;
5295;SDS011;2670;42.720;23.336;2022-09-03T04:33:13;17.90;;;8.23;;
5295;SDS011;2670;42.720;23.336;2022-09-03T04:35:41;11.80;;;7.93;;
5295;SDS011;2670;42.720;23.336;2022-09-03T04:38:08;12.93;;;7.87;;
5295;SDS011;2670;42.720;23.336;2022-09-03T04:40:35;16.87;;;7.53;;
5295;SDS011;2670;42.720;23.336;2022-09-03T04:43:02;9.90;;;5.97;;
5295;SDS011;2670;42.720;23.336;2022-09-03T04:45:30;13.30;;;8.20;;
5295;SDS011;2670;42.720;23.336;2022-09-03T04:47:57;12.87;;;8.30;;
5295;SDS011;2670;42.720;23.336;2022-09-03T04:50:25;11.33;;;7.63;;
5295;SDS011;2670;42.720;23.336;2022-09-03T04:52:53;15.00;;;7.83;;
5295;SDS011;2670;42.720;23.336;2022-09-03T04:55:23;12.13;;;8.13;;
5295;SDS011;2670;42.720;23.336;2022-09-03T04:57:49;13.73;;;8.00;;
5295;SDS011;2670;42.720;23.336;2022-09-03T05:00:17;10.67;;;6.43;;
5295;SDS011;2670;42.720;23.336;2022-09-03T05:02:44;12.37;;;7.63;;
5295;SDS011;2670;42.720;23.336;2022-09-03T05:05:13;11.97;;;7.23;;
5295;SDS011;2670;42.720;23.336;2022-09-03T05:07:40;13.57;;;7.53;;
5295;SDS011;2670;42.720;23.336;2022-09-03T05:10:10;12.30;;;8.40;;
5295;SDS011;2670;42.720;23.336;2022-09-03T05:12:40;12.60;;;7.27;;
5295;SDS011;2670;42.720;23.336;2022-09-03T05:15:07;10.60;;;6.83;;
5295;SDS011;2670;42.720;23.336;2022-09-03T05:17:34;11.97;;;7.50;;
5295;SDS011;2670;42.720;23.336;2022-09-03T05:20:02;11.83;;;7.40;;
5295;SDS011;2670;42.720;23.336;2022-09-03T05:22:30;12.40;;;7.90;;
5295;SDS011;2670;42.720;23.336;2022-09-03T05:24:57;10.50;;;7.63;;
5295;SDS011;2670;42.720;23.336;2022-09-03T05:27:25;9.00;;;6.40;;
5295;SDS011;2670;42.720;23.336;2022-09-03T05:29:51;9.97;;;6.87;;
5295;SDS011;2670;42.720;23.336;2022-09-03T05:32:18;9.10;;;6.13;;
5295;SDS011;2670;42.720;23.336;2022-09-03T05:34:45;12.23;;;7.50;;
5295;SDS011;2670;42.720;23.336;2022-09-03T05:37:11;9.27;;;6.23;;
5295;SDS011;2670;42.720;23.336;2022-09-03T05:39:38;11.63;;;7.97;;
5295;SDS011;2670;42.720;23.336;2022-09-03T05:42:05;10.00;;;7.50;;
5295;SDS011;2670;42.720;23.336;2022-09-03T05:44:33;9.50;;;6.80;;
5295;SDS011;2670;42.720;23.336;2022-09-03T05:47:01;12.57;;;6.53;;
5295;SDS011;2670;42.720;23.336;2022-09-03T05:49:27;13.37;;;7.60;;
5295;SDS011;2670;42.720;23.336;2022-09-03T05:51:54;13.37;;;7.70;;
5295;SDS011;2670;42.720;23.336;2022-09-03T05:54:21;11.20;;;7.73;;
5295;SDS011;2670;42.720;23.336;2022-09-03T05:56:48;13.63;;;8.40;;
5295;SDS011;2670;42.720;23.336;2022-09-03T05:59:15;12.40;;;7.17;;
5295;SDS011;2670;42.720;23.336;2022-09-03T06:01:43;10.90;;;7.77;;
5295;SDS011;2670;42.720;23.336;2022-09-03T06:04:12;11.67;;;6.67;;
5295;SDS011;2670;42.720;23.336;2022-09-03T06:06:40;10.43;;;6.43;;
5295;SDS011;2670;42.720;23.336;2022-09-03T06:09:09;13.60;;;8.37;;
5295;SDS011;2670;42.720;23.336;2022-09-03T06:11:38;11.77;;;7.43;;
5295;SDS011;2670;42.720;23.336;2022-09-03T06:14:07;9.30;;;6.90;;
5295;SDS011;2670;42.720;23.336;2022-09-03T06:16:36;10.80;;;7.40;;
5295;SDS011;2670;42.720;23.336;2022-09-03T06:19:06;13.73;;;6.97;;
5295;SDS011;2670;42.720;23.336;2022-09-03T06:21:34;13.70;;;7.50;;
5295;SDS011;2670;42.720;23.336;2022-09-03T06:24:01;11.43;;;7.00;;
5295;SDS011;2670;42.720;23.336;2022-09-03T06:26:28;17.40;;;7.50;;
5295;SDS011;2670;42.720;23.336;2022-09-03T06:28:55;10.47;;;6.87;;
5295;SDS011;2670;42.720;23.336;2022-09-03T06:31:24;10.37;;;6.40;;
5295;SDS011;2670;42.720;23.336;2022-09-03T06:33:51;10.67;;;6.70;;
5295;SDS011;2670;42.720;23.336;2022-09-03T06:36:20;12.50;;;6.43;;
5295;SDS011;2670;42.720;23.336;2022-09-03T06:38:50;11.90;;;7.17;;
5295;SDS011;2670;42.720;23.336;2022-09-03T06:41:19;10.23;;;6.90;;
5295;SDS011;2670;42.720;23.336;2022-09-03T06:43:49;9.83;;;6.63;;
5295;SDS011;2670;42.720;23.336;2022-09-03T06:46:18;10.03;;;6.70;;
5295;SDS011;2670;42.720;23.336;2022-09-03T06:48:46;9.73;;;6.67;;
5295;SDS011;2670;42.720;23.336;2022-09-03T06:51:13;12.57;;;7.67;;
5295;SDS011;2670;42.720;23.336;2022-09-03T06:53:43;11.83;;;7.43;;
5295;SDS011;2670;42.720;23.336;2022-09-03T06:56:12;9.73;;;6.60;;
5295;SDS011;2670;42.720;23.336;2022-09-03T06:58:41;10.03;;;6.90;;
5295;SDS011;2670;42.720;23.336;2022-09-03T07:01:10;9.57;;;6.70;;
5295;SDS011;2670;42.720;23.336;2022-09-03T07:03:39;11.00;;;5.90;;
5295;SDS011;2670;42.720;23.336;2022-09-03T07:06:08;9.17;;;6.73;;
5295;SDS011;2670;42.720;23.336;2022-09-03T07:08:36;10.90;;;6.73;;
5295;SDS011;2670;42.720;23.336;2022-09-03T07:11:04;10.67;;;6.43;;
5295;SDS011;2670;42.720;23.336;2022-09-03T07:13:34;10.13;;;6.87;;
5295;SDS011;2670;42.720;23.336;2022-09-03T07:16:02;9.73;;;7.07;;
5295;SDS011;2670;42.720;23.336;2022-09-03T07:18:30;8.40;;;6.67;;
5295;SDS011;2670;42.720;23.336;2022-09-03T07:20:58;13.90;;;6.37;;
5295;SDS011;2670;42.720;23.336;2022-09-03T07:23:25;9.80;;;6.70;;
5295;SDS011;2670;42.720;23.336;2022-09-03T07:25:53;8.83;;;6.60;;
5295;SDS011;2670;42.720;23.336;2022-09-03T07:28:22;9.47;;;6.50;;
5295;SDS011;2670;42.720;23.336;2022-09-03T07:30:49;7.77;;;5.90;;
5295;SDS011;2670;42.720;23.336;2022-09-03T07:33:16;9.57;;;6.50;;
5295;SDS011;2670;42.720;23.336;2022-09-03T07:35:43;9.90;;;6.83;;
5295;SDS011;2670;42.720;23.336;2022-09-03T07:38:10;12.60;;;6.67;;
5295;SDS011;2670;42.720;23.336;2022-09-03T07:40:37;9.50;;;6.40;;
5295;SDS011;2670;42.720;23.336;2022-09-03T07:43:04;8.57;;;5.73;;
5295;SDS011;2670;42.720;23.336;2022-09-03T07:45:32;9.10;;;6.50;;
5295;SDS011;2670;42.720;23.336;2022-09-03T07:47:59;8.80;;;6.33;;
5295;SDS011;2670;42.720;23.336;2022-09-03T07:50:25;7.30;;;5.80;;
5295;SDS011;2670;42.720;23.336;2022-09-03T07:52:55;8.80;;;5.63;;
5295;SDS011;2670;42.720;23.336;2022-09-03T07:55:23;9.97;;;6.63;;
5295;SDS011;2670;42.720;23.336;2022-09-03T07:57:53;7.70;;;5.67;;
5295;SDS011;2670;42.720;23.336;2022-09-03T08:00:21;8.87;;;6.23;;
5295;SDS011;2670;42.720;23.336;2022-09-03T08:02:51;7.70;;;5.93;;
5295;SDS011;2670;42.720;23.336;2022-09-03T08:05:18;7.43;;;5.13;;
5295;SDS011;2670;42.720;23.336;2022-09-03T08:07:45;8.80;;;5.50;;
5295;SDS011;2670;42.720;23.336;2022-09-03T08:10:12;9.97;;;6.07;;
5295;SDS011;2670;42.720;23.336;2022-09-03T08:12:40;8.70;;;5.90;;
5295;SDS011;2670;42.720;23.336;2022-09-03T08:15:07;9.13;;;5.43;;
5295;SDS011;2670;42.720;23.336;2022-09-03T08:17:34;9.20;;;5.63;;
5295;SDS011;2670;42.720;23.336;2022-09-03T08:20:02;8.63;;;6.07;;
5295;SDS011;2670;42.720;23.336;2022-09-03T08:22:29;8.90;;;6.17;;
5295;SDS011;2670;42.720;23.336;2022-09-03T08:24:56;6.70;;;5.40;;
5295;SDS011;2670;42.720;23.336;2022-09-03T08:27:24;9.30;;;6.80;;
5295;SDS011;2670;42.720;23.336;2022-09-03T08:29:51;8.70;;;6.13;;
5295;SDS011;2670;42.720;23.336;2022-09-03T08:32:18;6.20;;;4.73;;
5295;SDS011;2670;42.720;23.336;2022-09-03T08:34:45;7.97;;;5.73;;
5295;SDS011;2670;42.720;23.336;2022-09-03T08:37:13;11.13;;;5.50;;
5295;SDS011;2670;42.720;23.336;2022-09-03T08:39:40;10.93;;;5.70;;
5295;SDS011;2670;42.720;23.336;2022-09-03T08:42:13;6.83;;;5.30;;
5295;SDS011;2670;42.720;23.336;2022-09-03T08:44:47;7.60;;;5.23;;
5295;SDS011;2670;42.720;23.336;2022-09-03T08:47:20;6.90;;;4.90;;
5295;SDS011;2670;42.720;23.336;2022-09-03T08:49:51;6.13;;;5.03;;
5295;SDS011;2670;42.720;23.336;2022-09-03T08:52:24;6.40;;;5.00;;
5295;SDS011;2670;42.720;23.336;2022-09-03T08:54:58;6.37;;;5.10;;
5295;SDS011;2670;42.720;23.336;2022-09-03T08:57:30;6.20;;;4.80;;
5295;SDS011;2670;42.720;23.336;2022-09-03T09:00:02;7.50;;;5.97;;
5295;SDS011;2670;42.720;23.336;2022-09-03T09:02:32;9.17;;;6.37;;
5295;SDS011;2670;42.720;23.336;2022-09-03T09:05:10;7.63;;;5.60;;
5295;SDS011;2670;42.720;23.336;2022-09-03T09:07:44;7.20;;;5.20;;
5295;SDS011;2670;42.720;23.336;2022-09-03T09:10:19;9.63;;;5.80;;
5295;SDS011;2670;42.720;23.336;2022-09-03T09:12:55;7.97;;;5.83;;
5295;SDS011;2670;42.720;23.336;2022-09-03T09:15:33;6.50;;;5.27;;
5295;SDS011;2670;42.720;23.336;2022-09-03T09:18:09;6.87;;;5.00;;
5295;SDS011;2670;42.720;23.336;2022-09-03T09:20:44;9.47;;;6.23;;
5295;SDS011;2670;42.720;23.336;2022-09-03T09:23:18;6.97;;;5.33;;
5295;SDS011;2670;42.720;23.336;2022-09-03T09:25:51;6.40;;;5.10;;
5295;SDS011;2670;42.720;23.336;2022-09-03T09:28:22;7.97;;;5.30;;
5295;SDS011;2670;42.720;23.336;2022-09-03T09:30:50;7.23;;;5.53;;
5295;SDS011;2670;42.720;23.336;2022-09-03T09:33:20;8.83;;;5.60;;
5295;SDS011;2670;42.720;23.336;2022-09-03T09:35:48;7.63;;;5.57;;
5295;SDS011;2670;42.720;23.336;2022-09-03T09:38:25;6.90;;;4.90;;
5295;SDS011;2670;42.720;23.336;2022-09-03T09:41:06;6.57;;;5.23;;
5295;SDS011;2670;42.720;23.336;2022-09-03T09:43:34;7.63;;;5.37;;
5295;SDS011;2670;42.720;23.336;2022-09-03T09:46:05;9.30;;;5.13;;
5295;SDS011;2670;42.720;23.336;2022-09-03T09:48:36;5.50;;;4.90;;
5295;SDS011;2670;42.720;23.336;2022-09-03T09:51:08;8.97;;;5.50;;
5295;SDS011;2670;42.720;23.336;2022-09-03T09:53:38;9.33;;;4.50;;
5295;SDS011;2670;42.720;23.336;2022-09-03T09:56:05;5.57;;;4.83;;
5295;SDS011;2670;42.720;23.336;2022-09-03T09:58:33;6.80;;;4.97;;
5295;SDS011;2670;42.720;23.336;2022-09-03T10:01:02;6.70;;;4.80;;
5295;SDS011;2670;42.720;23.336;2022-09-03T10:03:38;7.10;;;5.50;;
5295;SDS011;2670;42.720;23.336;2022-09-03T10:06:08;8.23;;;4.70;;
5295;SDS011;2670;42.720;23.336;2022-09-03T10:09:05;7.13;;;4.97;;
5295;SDS011;2670;42.720;23.336;2022-09-03T10:11:33;5.77;;;4.70;;
5295;SDS011;2670;42.720;23.336;2022-09-03T10:14:02;4.27;;;3.80;;
5295;SDS011;2670;42.720;23.336;2022-09-03T10:16:34;6.13;;;4.50;;
5295;SDS011;2670;42.720;23.336;2022-09-03T10:19:10;5.13;;;4.30;;
5295;SDS011;2670;42.720;23.336;2022-09-03T10:21:43;5.20;;;4.60;;
5295;SDS011;2670;42.720;23.336;2022-09-03T10:24:21;6.27;;;4.87;;
5295;SDS011;2670;42.720;23.336;2022-09-03T10:26:57;3.53;;;3.13;;
5295;SDS011;2670;42.720;23.336;2022-09-03T10:29:24;5.27;;;4.50;;
5295;SDS011;2670;42.720;23.336;2022-09-03T10:32:05;8.70;;;4.90;;
5295;SDS011;2670;42.720;23.336;2022-09-03T10:34:51;6.30;;;5.10;;
5295;SDS011;2670;42.720;23.336;2022-09-03T10:37:28;5.53;;;4.93;;
5295;SDS011;2670;42.720;23.336;2022-09-03T10:40:08;6.57;;;5.23;;
5295;SDS011;2670;42.720;23.336;2022-09-03T10:42:42;5.70;;;4.23;;
5295;SDS011;2670;42.720;23.336;2022-09-03T10:45:14;5.10;;;4.20;;
5295;SDS011;2670;42.720;23.336;2022-09-03T10:50:45;5.97;;;4.07;;
5295;SDS011;2670;42.720;23.336;2022-09-03T10:53:18;5.40;;;4.13;;
5295;SDS011;2670;42.720;23.336;2022-09-03T10:55:57;5.60;;;4.10;;
5295;SDS011;2670;42.720;23.336;2022-09-03T10:58:36;6.03;;;5.00;;
5295;SDS011;2670;42.720;23.336;2022-09-03T11:01:16;7.40;;;5.60;;
5295;SDS011;2670;42.720;23.336;2022-09-03T11:03:52;6.00;;;4.87;;
5295;SDS011;2670;42.720;23.336;2022-09-03T11:06:33;5.27;;;4.37;;
5295;SDS011;2670;42.720;23.336;2022-09-03T11:09:09;6.50;;;4.83;;
5295;SDS011;2670;42.720;23.336;2022-09-03T11:11:43;5.63;;;4.47;;
5295;SDS011;2670;42.720;23.336;2022-09-03T11:14:14;7.17;;;5.17;;
5295;SDS011;2670;42.720;23.336;2022-09-03T11:16:51;5.03;;;4.10;;
5295;SDS011;2670;42.720;23.336;2022-09-03T11:19:25;4.70;;;3.87;;
5295;SDS011;2670;42.720;23.336;2022-09-03T11:21:59;9.57;;;7.50;;
5295;SDS011;2670;42.720;23.336;2022-09-03T11:24:27;9.47;;;5.90;;
5295;SDS011;2670;42.720;23.336;2022-09-03T11:27:01;14.03;;;5.07;;
5295;SDS011;2670;42.720;23.336;2022-09-03T11:29:32;6.63;;;5.50;;
5295;SDS011;2670;42.720;23.336;2022-09-03T11:32:04;5.17;;;4.67;;
5295;SDS011;2670;42.720;23.336;2022-09-03T11:34:43;7.60;;;5.07;;
5295;SDS011;2670;42.720;23.336;2022-09-03T11:37:18;5.70;;;4.57;;
5295;SDS011;2670;42.720;23.336;2022-09-03T11:39:53;5.20;;;4.43;;
5295;SDS011;2670;42.720;23.336;2022-09-03T11:42:26;7.13;;;5.30;;
5295;SDS011;2670;42.720;23.336;2022-09-03T11:45:11;5.23;;;4.67;;
5295;SDS011;2670;42.720;23.336;2022-09-03T11:47:45;6.43;;;4.83;;
5295;SDS011;2670;42.720;23.336;2022-09-03T11:50:16;6.20;;;4.90;;
5295;SDS011;2670;42.720;23.336;2022-09-03T11:52:46;5.97;;;4.90;;
5295;SDS011;2670;42.720;23.336;2022-09-03T11:55:25;5.00;;;4.20;;
5295;SDS011;2670;42.720;23.336;2022-09-03T11:57:57;6.30;;;4.70;;
5295;SDS011;2670;42.720;23.336;2022-09-03T12:00:24;5.37;;;4.07;;
5295;SDS011;2670;42.720;23.336;2022-09-03T12:02:51;4.13;;;3.63;;
5295;SDS011;2670;42.720;23.336;2022-09-03T12:05:25;4.50;;;3.87;;
5295;SDS011;2670;42.720;23.336;2022-09-03T12:08:18;5.57;;;4.27;;
5295;SDS011;2670;42.720;23.336;2022-09-03T12:11:05;4.70;;;4.03;;
5295;SDS011;2670;42.720;23.336;2022-09-03T12:13:47;4.70;;;4.30;;
5295;SDS011;2670;42.720;23.336;2022-09-03T12:16:26;6.17;;;4.47;;
5295;SDS011;2670;42.720;23.336;2022-09-03T12:19:02;4.87;;;4.30;;
5295;SDS011;2670;42.720;23.336;2022-09-03T12:21:36;6.67;;;5.20;;
5295;SDS011;2670;42.720;23.336;2022-09-03T12:24:04;6.50;;;4.73;;
5295;SDS011;2670;42.720;23.336;2022-09-03T12:26:37;8.00;;;4.53;;
5295;SDS011;2670;42.720;23.336;2022-09-03T12:29:17;7.17;;;4.97;;
5295;SDS011;2670;42.720;23.336;2022-09-03T12:31:47;5.53;;;4.60;;
5295;SDS011;2670;42.720;23.336;2022-09-03T12:34:16;6.07;;;5.00;;
5295;SDS011;2670;42.720;23.336;2022-09-03T12:36:45;5.77;;;4.83;;
5295;SDS011;2670;42.720;23.336;2022-09-03T12:39:14;7.57;;;5.50;;
5295;SDS011;2670;42.720;23.336;2022-09-03T12:41:52;7.80;;;5.30;;
5295;SDS011;2670;42.720;23.336;2022-09-03T12:44:25;6.23;;;4.83;;
5295;SDS011;2670;42.720;23.336;2022-09-03T12:47:04;6.13;;;5.50;;
5295;SDS011;2670;42.720;23.336;2022-09-03T12:49:35;5.73;;;4.67;;
5295;SDS011;2670;42.720;23.336;2022-09-03T12:52:04;5.63;;;4.60;;
5295;SDS011;2670;42.720;23.336;2022-09-03T12:54:37;5.63;;;4.30;;
5295;SDS011;2670;42.720;23.336;2022-09-03T12:57:10;5.80;;;3.50;;
5295;SDS011;2670;42.720;23.336;2022-09-03T12:59:44;5.53;;;4.20;;
5295;SDS011;2670;42.720;23.336;2022-09-03T13:02:16;5.90;;;3.60;;
5295;SDS011;2670;42.720;23.336;2022-09-03T13:04:47;4.40;;;3.70;;
5295;SDS011;2670;42.720;23.336;2022-09-03T13:07:20;5.80;;;4.20;;
5295;SDS011;2670;42.720;23.336;2022-09-03T13:09:55;5.70;;;4.53;;
5295;SDS011;2670;42.720;23.336;2022-09-03T13:12:29;4.63;;;3.67;;
5295;SDS011;2670;42.720;23.336;2022-09-03T13:15:03;4.50;;;3.80;;
5295;SDS011;2670;42.720;23.336;2022-09-03T13:17:39;5.30;;;3.70;;
5295;SDS011;2670;42.720;23.336;2022-09-03T13:20:33;4.80;;;3.43;;
5295;SDS011;2670;42.720;23.336;2022-09-03T13:23:09;18.10;;;9.17;;
5295;SDS011;2670;42.720;23.336;2022-09-03T13:25:55;28.70;;;17.70;;
5295;SDS011;2670;42.720;23.336;2022-09-03T13:28:28;25.30;;;13.23;;
5295;SDS011;2670;42.720;23.336;2022-09-03T13:31:22;6.17;;;4.70;;
5295;SDS011;2670;42.720;23.336;2022-09-03T13:33:56;4.10;;;3.20;;
5295;SDS011;2670;42.720;23.336;2022-09-03T13:36:28;3.93;;;3.23;;
5295;SDS011;2670;42.720;23.336;2022-09-03T13:39:02;4.13;;;3.07;;
5295;SDS011;2670;42.720;23.336;2022-09-03T13:41:34;3.77;;;3.00;;
5295;SDS011;2670;42.720;23.336;2022-09-03T13:44:06;2.70;;;2.47;;
5295;SDS011;2670;42.720;23.336;2022-09-03T13:46:42;3.00;;;2.53;;
5295;SDS011;2670;42.720;23.336;2022-09-03T13:49:19;2.97;;;2.50;;
5295;SDS011;2670;42.720;23.336;2022-09-03T13:52:12;4.03;;;2.93;;
5295;SDS011;2670;42.720;23.336;2022-09-03T13:54:48;3.20;;;2.40;;
5295;SDS011;2670;42.720;23.336;2022-09-03T13:57:22;3.70;;;2.87;;
5295;SDS011;2670;42.720;23.336;2022-09-03T13:59:57;2.40;;;2.03;;
5295;SDS011;2670;42.720;23.336;2022-09-03T14:02:32;3.47;;;2.50;;
5295;SDS011;2670;42.720;23.336;2022-09-03T14:05:12;2.90;;;2.40;;
5295;SDS011;2670;42.720;23.336;2022-09-03T14:07:52;3.00;;;2.70;;
5295;SDS011;2670;42.720;23.336;2022-09-03T14:10:30;4.20;;;2.93;;
5295;SDS011;2670;42.720;23.336;2022-09-03T14:13:13;3.13;;;2.80;;
5295;SDS011;2670;42.720;23.336;2022-09-03T14:15:49;4.73;;;3.10;;
5295;SDS011;2670;42.720;23.336;2022-09-03T14:18:30;3.90;;;3.13;;
5295;SDS011;2670;42.720;23.336;2022-09-03T14:21:04;4.53;;;3.53;;
5295;SDS011;2670;42.720;23.336;2022-09-03T14:23:37;6.23;;;3.10;;
5295;SDS011;2670;42.720;23.336;2022-09-03T14:26:14;4.83;;;2.83;;
5295;SDS011;2670;42.720;23.336;2022-09-03T14:28:43;3.97;;;3.10;;
5295;SDS011;2670;42.720;23.336;2022-09-03T14:31:15;4.00;;;3.00;;
5295;SDS011;2670;42.720;23.336;2022-09-03T14:33:54;6.50;;;3.63;;
5295;SDS011;2670;42.720;23.336;2022-09-03T14:36:30;4.10;;;3.40;;
5295;SDS011;2670;42.720;23.336;2022-09-03T14:39:15;3.67;;;3.20;;
5295;SDS011;2670;42.720;23.336;2022-09-03T14:47:47;4.60;;;3.20;;
5295;SDS011;2670;42.720;23.336;2022-09-03T14:50:36;3.80;;;3.00;;
5295;SDS011;2670;42.720;23.336;2022-09-03T14:56:28;4.07;;;3.67;;
5295;SDS011;2670;42.720;23.336;2022-09-03T14:59:19;3.80;;;3.43;;
5295;SDS011;2670;42.720;23.336;2022-09-03T15:05:03;6.87;;;3.87;;
5295;SDS011;2670;42.720;23.336;2022-09-03T15:07:39;4.50;;;3.33;;
5295;SDS011;2670;42.720;23.336;2022-09-03T15:10:11;6.93;;;3.70;;
5295;SDS011;2670;42.720;23.336;2022-09-03T15:12:45;4.27;;;3.63;;
5295;SDS011;2670;42.720;23.336;2022-09-03T15:15:17;7.50;;;3.73;;
5295;SDS011;2670;42.720;23.336;2022-09-03T15:18:00;4.83;;;3.70;;
5295;SDS011;2670;42.720;23.336;2022-09-03T15:20:36;4.90;;;3.70;;
5295;SDS011;2670;42.720;23.336;2022-09-03T15:23:21;5.70;;;4.10;;
5295;SDS011;2670;42.720;23.336;2022-09-03T15:26:13;5.77;;;4.67;;
5295;SDS011;2670;42.720;23.336;2022-09-03T15:28:59;6.03;;;5.03;;
5295;SDS011;2670;42.720;23.336;2022-09-03T15:31:41;4.80;;;4.13;;
5295;SDS011;2670;42.720;23.336;2022-09-03T15:34:16;5.30;;;4.27;;
5295;SDS011;2670;42.720;23.336;2022-09-03T15:36:58;6.23;;;3.80;;
5295;SDS011;2670;42.720;23.336;2022-09-03T15:39:35;6.77;;;4.50;;
5295;SDS011;2670;42.720;23.336;2022-09-03T15:42:09;5.97;;;4.10;;
5295;SDS011;2670;42.720;23.336;2022-09-03T15:44:40;4.50;;;3.70;;
5295;SDS011;2670;42.720;23.336;2022-09-03T15:47:11;5.20;;;4.40;;
5295;SDS011;2670;42.720;23.336;2022-09-03T15:49:53;5.20;;;4.10;;